createdAt,value
2016-05-30T00:00:55.438Z,20.89
2016-05-30T00:01:55.502Z,20.9
2016-05-30T00:02:55.427Z,20.84
2016-05-30T00:03:55.586Z,20.81
2016-05-30T00:04:55.464Z,20.84
2016-05-30T00:05:55.654Z,20.86
2016-05-30T00:06:55.829Z,20.86
2016-05-30T00:07:55.643Z,20.81
2016-05-30T00:08:55.787Z,20.83
2016-05-30T00:09:55.852Z,20.86
2016-05-30T00:10:55.949Z,20.87
2016-05-30T00:11:55.920Z,20.81
2016-05-30T00:12:55.970Z,20.71
2016-05-30T00:13:56.035Z,20.81
2016-05-30T00:14:56.037Z,20.77
2016-05-30T00:15:55.931Z,20.74
2016-05-30T00:16:56.152Z,20.72
2016-05-30T00:17:56.045Z,20.68
2016-05-30T00:18:56.236Z,20.62
2016-05-30T00:19:56.129Z,20.59
2016-05-30T00:20:56.178Z,20.62
2016-05-30T00:21:56.369Z,20.59
2016-05-30T00:22:56.247Z,20.56
2016-05-30T00:23:56.452Z,20.58
2016-05-30T00:24:56.330Z,20.54
2016-05-30T00:25:56.425Z,20.58
2016-05-30T00:26:56.428Z,20.61
2016-05-30T00:27:56.620Z,20.64
2016-05-30T00:28:56.669Z,20.59
2016-05-30T00:29:56.703Z,20.64
2016-05-30T00:30:56.768Z,20.66
2016-05-30T00:31:56.817Z,20.61
2016-05-30T00:32:56.835Z,20.61
2016-05-30T00:33:56.885Z,20.58
2016-05-30T00:34:56.904Z,20.64
2016-05-30T00:35:56.985Z,20.58
2016-05-30T00:36:57.769Z,20.59
2016-05-30T00:37:56.912Z,20.54
2016-05-30T00:38:56.992Z,20.53
2016-05-30T00:39:57.136Z,20.54
2016-05-30T00:40:57.202Z,20.53
2016-05-30T00:41:57.235Z,20.49
2016-05-30T00:42:57.285Z,20.51
2016-05-30T00:43:57.303Z,20.43
2016-05-30T00:44:57.368Z,20.49
2016-05-30T00:45:57.402Z,20.51
2016-05-30T00:46:57.296Z,20.42
2016-05-30T00:47:57.485Z,20.43
2016-05-30T00:48:57.535Z,20.42
2016-05-30T00:49:57.460Z,20.35
2016-05-30T00:50:57.478Z,20.39
2016-05-30T00:51:57.496Z,20.39
2016-05-30T00:52:57.561Z,20.39
2016-05-30T00:53:57.798Z,20.42
2016-05-30T00:54:57.629Z,20.38
2016-05-30T00:55:57.851Z,20.34
2016-05-30T00:56:57.791Z,20.34
2016-05-30T00:57:57.903Z,20.31
2016-05-30T00:58:57.937Z,20.3
2016-05-30T00:59:58.017Z,20.27
2016-05-30T01:00:58.067Z,20.35
2016-05-30T01:01:58.101Z,20.25
2016-05-30T01:02:58.135Z,20.28
2016-05-30T01:03:58.263Z,20.34
2016-05-30T01:04:58.110Z,20.34
2016-05-30T01:05:58.252Z,20.3
2016-05-30T01:06:58.161Z,20.34
2016-05-30T01:07:58.336Z,20.33
2016-05-30T01:08:58.401Z,20.27
2016-05-30T01:09:58.435Z,20.33
2016-05-30T01:10:58.328Z,20.31
2016-05-30T01:11:58.503Z,20.25
2016-05-30T01:12:58.552Z,20.27
2016-05-30T01:13:58.462Z,20.28
2016-05-30T01:14:58.479Z,20.28
2016-05-30T01:15:58.702Z,20.25
2016-05-30T01:16:58.735Z,20.23
2016-05-30T01:17:58.801Z,20.25
2016-05-30T01:18:58.662Z,20.25
2016-05-30T01:19:58.868Z,20.21
2016-05-30T01:20:58.918Z,20.15
2016-05-30T01:21:58.952Z,20.25
2016-05-30T01:22:59.001Z,20.23
2016-05-30T01:23:59.036Z,20.23
2016-05-30T01:24:59.070Z,20.18
2016-05-30T01:25:58.979Z,20.21
2016-05-30T01:26:59.153Z,20.16
2016-05-30T01:27:59.203Z,20.15
2016-05-30T01:28:59.299Z,20.1
2016-05-30T01:29:59.286Z,20.1
2016-05-30T01:30:59.336Z,20.12
2016-05-30T01:31:59.385Z,20.08
2016-05-30T01:32:59.263Z,20.03
2016-05-30T01:33:59.312Z,20.06
2016-05-30T01:34:59.503Z,20.05
2016-05-30T01:35:59.583Z,20.1
2016-05-30T01:37:00.242Z,20.06
2016-05-30T01:37:59.635Z,20.05
2016-05-30T01:38:59.654Z,20.02
2016-05-30T01:39:59.782Z,20.08
2016-05-30T01:40:59.769Z,19.91
2016-05-30T01:41:59.802Z,19.91
2016-05-30T01:42:59.712Z,19.95
2016-05-30T01:43:59.918Z,19.98
2016-05-30T01:44:59.935Z,19.91
2016-05-30T01:45:59.970Z,19.95
2016-05-30T01:47:00.034Z,19.91
2016-05-30T01:47:59.928Z,19.88
2016-05-30T01:49:00.118Z,19.91
2016-05-30T01:49:59.981Z,19.88
2016-05-30T01:51:00.201Z,19.88
2016-05-30T01:52:00.376Z,19.86
2016-05-30T01:53:00.270Z,19.79
2016-05-30T01:54:00.350Z,19.88
2016-05-30T01:55:00.369Z,19.86
2016-05-30T01:56:00.246Z,19.83
2016-05-30T01:57:00.467Z,19.76
2016-05-30T01:58:00.330Z,19.9
2016-05-30T01:59:00.536Z,19.76
2016-05-30T02:00:00.428Z,19.86
2016-05-30T02:01:00.682Z,19.88
2016-05-30T02:02:00.684Z,19.76
2016-05-30T02:03:00.718Z,19.69
2016-05-30T02:04:00.736Z,19.73
2016-05-30T02:05:00.849Z,19.66
2016-05-30T02:06:00.820Z,19.66
2016-05-30T02:07:00.730Z,19.7
2016-05-30T02:08:00.764Z,19.69
2016-05-30T02:09:00.984Z,19.73
2016-05-30T02:10:01.019Z,19.66
2016-05-30T02:11:01.052Z,19.7
2016-05-30T02:12:01.133Z,19.65
2016-05-30T02:13:01.136Z,19.66
2016-05-30T02:14:01.185Z,19.66
2016-05-30T02:15:01.219Z,19.58
2016-05-30T02:16:01.301Z,19.61
2016-05-30T02:17:01.304Z,19.63
2016-05-30T02:18:01.196Z,19.63
2016-05-30T02:19:01.449Z,19.6
2016-05-30T02:20:01.437Z,19.6
2016-05-30T02:21:01.485Z,19.57
2016-05-30T02:22:01.848Z,19.53
2016-05-30T02:23:01.553Z,19.57
2016-05-30T02:24:01.618Z,19.6
2016-05-30T02:25:01.653Z,19.55
2016-05-30T02:26:01.718Z,19.54
2016-05-30T02:27:01.751Z,19.57
2016-05-30T02:28:01.770Z,19.57
2016-05-30T02:29:01.804Z,19.55
2016-05-30T02:30:01.884Z,19.51
2016-05-30T02:31:01.903Z,19.6
2016-05-30T02:32:01.952Z,19.54
2016-05-30T02:33:01.847Z,19.48
2016-05-30T02:34:01.927Z,19.42
2016-05-30T02:35:02.086Z,19.48
2016-05-30T02:36:01.947Z,19.4
2016-05-30T02:37:02.013Z,19.42
2016-05-30T02:38:02.203Z,19.46
2016-05-30T02:39:02.265Z,19.46
2016-05-30T02:40:02.342Z,19.36
2016-05-30T02:41:02.090Z,19.47
2016-05-30T02:42:02.464Z,19.38
2016-05-30T02:43:02.540Z,19.42
2016-05-30T02:44:02.593Z,19.39
2016-05-30T02:45:02.653Z,19.46
2016-05-30T02:46:02.711Z,19.42
2016-05-30T02:47:02.755Z,19.36
2016-05-30T02:48:02.829Z,19.38
2016-05-30T02:49:02.839Z,19.53
2016-05-30T02:50:02.907Z,19.36
2016-05-30T02:51:02.992Z,19.46
2016-05-30T02:52:03.451Z,19.38
2016-05-30T02:53:03.051Z,19.35
2016-05-30T02:54:03.087Z,19.38
2016-05-30T02:55:03.138Z,19.33
2016-05-30T02:56:03.173Z,19.28
2016-05-30T02:57:03.224Z,19.33
2016-05-30T02:58:03.337Z,19.38
2016-05-30T02:59:03.356Z,19.38
2016-05-30T03:00:03.360Z,19.28
2016-05-30T03:01:03.426Z,19.31
2016-05-30T03:02:03.460Z,19.33
2016-05-30T03:03:03.495Z,19.33
2016-05-30T03:04:03.357Z,19.31
2016-05-30T03:05:03.563Z,19.38
2016-05-30T03:06:03.660Z,19.24
2016-05-30T03:07:04.537Z,19.33
2016-05-30T03:08:03.695Z,19.25
2016-05-30T03:09:03.746Z,19.29
2016-05-30T03:10:03.796Z,19.2
2016-05-30T03:11:03.829Z,19.32
2016-05-30T03:12:03.723Z,19.29
2016-05-30T03:13:03.944Z,19.32
2016-05-30T03:14:03.978Z,19.28
2016-05-30T03:15:04.012Z,19.24
2016-05-30T03:16:04.031Z,19.28
2016-05-30T03:17:04.111Z,19.24
2016-05-30T03:18:04.114Z,19.32
2016-05-30T03:19:04.147Z,19.4
2016-05-30T03:20:04.213Z,19.28
2016-05-30T03:21:04.294Z,19.32
2016-05-30T03:22:04.687Z,19.36
2016-05-30T03:23:04.315Z,19.33
2016-05-30T03:24:04.380Z,19.36
2016-05-30T03:25:04.414Z,19.24
2016-05-30T03:26:04.291Z,19.28
2016-05-30T03:27:04.496Z,19.38
2016-05-30T03:28:04.547Z,19.4
2016-05-30T03:29:04.581Z,19.28
2016-05-30T03:30:04.646Z,19.35
2016-05-30T03:31:04.679Z,19.36
2016-05-30T03:32:04.714Z,19.35
2016-05-30T03:33:04.763Z,19.33
2016-05-30T03:34:04.812Z,19.36
2016-05-30T03:35:04.722Z,19.4
2016-05-30T03:36:04.896Z,19.33
2016-05-30T03:37:05.415Z,19.33
2016-05-30T03:38:04.965Z,19.43
2016-05-30T03:39:05.046Z,19.43
2016-05-30T03:40:05.047Z,19.51
2016-05-30T03:41:05.098Z,19.46
2016-05-30T03:42:04.992Z,19.47
2016-05-30T03:43:05.228Z,19.55
2016-05-30T03:44:05.231Z,19.5
2016-05-30T03:45:05.265Z,19.54
2016-05-30T03:46:05.330Z,19.53
2016-05-30T03:47:05.380Z,19.57
2016-05-30T03:48:05.397Z,19.51
2016-05-30T03:49:05.431Z,19.58
2016-05-30T03:50:05.513Z,19.5
2016-05-30T03:51:05.516Z,19.63
2016-05-30T03:52:05.924Z,19.51
2016-05-30T03:53:05.489Z,19.61
2016-05-30T03:54:05.663Z,19.5
2016-05-30T03:55:05.713Z,19.6
2016-05-30T03:56:05.435Z,19.54
2016-05-30T03:57:05.828Z,19.63
2016-05-30T03:58:05.862Z,19.58
2016-05-30T03:59:05.880Z,19.61
2016-05-30T04:00:05.915Z,19.65
2016-05-30T04:01:05.995Z,19.66
2016-05-30T04:02:05.982Z,19.61
2016-05-30T04:03:06.047Z,19.66
2016-05-30T04:04:06.082Z,19.63
2016-05-30T04:05:05.990Z,19.7
2016-05-30T04:06:06.165Z,19.66
2016-05-30T04:07:06.401Z,19.66
2016-05-30T04:08:06.295Z,19.72
2016-05-30T04:09:06.314Z,19.72
2016-05-30T04:10:06.348Z,19.72
2016-05-30T04:11:06.226Z,19.72
2016-05-30T04:12:06.447Z,19.73
2016-05-30T04:13:06.464Z,19.8
2016-05-30T04:14:06.499Z,19.8
2016-05-30T04:15:06.548Z,19.86
2016-05-30T04:16:06.629Z,19.9
2016-05-30T04:17:06.664Z,19.84
2016-05-30T04:18:06.681Z,19.9
2016-05-30T04:19:06.731Z,19.88
2016-05-30T04:20:06.765Z,19.94
2016-05-30T04:21:06.799Z,20.03
2016-05-30T04:22:06.849Z,20
2016-05-30T04:23:06.758Z,19.91
2016-05-30T04:24:06.963Z,19.93
2016-05-30T04:25:06.997Z,19.91
2016-05-30T04:26:06.859Z,19.91
2016-05-30T04:27:07.112Z,19.97
2016-05-30T04:28:07.115Z,19.9
2016-05-30T04:29:06.835Z,19.91
2016-05-30T04:30:07.213Z,19.97
2016-05-30T04:31:07.248Z,19.91
2016-05-30T04:32:07.126Z,19.91
2016-05-30T04:33:07.362Z,19.88
2016-05-30T04:34:07.381Z,19.9
2016-05-30T04:35:07.398Z,19.94
2016-05-30T04:36:07.448Z,19.93
2016-05-30T04:37:07.968Z,19.9
2016-05-30T04:38:07.392Z,20
2016-05-30T04:39:07.565Z,19.91
2016-05-30T04:40:07.615Z,20.02
2016-05-30T04:41:07.712Z,20.02
2016-05-30T04:42:07.714Z,20.06
2016-05-30T04:43:07.593Z,20.06
2016-05-30T04:44:07.798Z,20.13
2016-05-30T04:45:07.878Z,20.16
2016-05-30T04:46:07.882Z,20.16
2016-05-30T04:47:09.056Z,20.2
2016-05-30T04:48:08.122Z,20.21
2016-05-30T04:49:08.437Z,20.23
2016-05-30T04:50:08.330Z,20.18
2016-05-30T04:51:08.177Z,20.27
2016-05-30T04:52:08.008Z,20.33
2016-05-30T04:53:08.182Z,20.24
2016-05-30T04:54:09.966Z,20.28
2016-05-30T04:55:08.266Z,20.39
2016-05-30T04:56:08.377Z,20.3
2016-05-30T04:57:09.271Z,20.27
2016-05-30T04:58:08.930Z,20.34
2016-05-30T04:59:08.432Z,20.42
2016-05-30T05:00:08.513Z,20.46
2016-05-30T05:01:08.532Z,20.46
2016-05-30T05:02:08.565Z,20.47
2016-05-30T05:03:08.646Z,20.49
2016-05-30T05:04:08.743Z,20.54
2016-05-30T05:05:08.682Z,20.58
2016-05-30T05:06:08.748Z,20.59
2016-05-30T05:07:09.829Z,20.69
2016-05-30T05:08:09.175Z,20.68
2016-05-30T05:09:08.787Z,20.68
2016-05-30T05:10:08.931Z,20.72
2016-05-30T05:11:08.964Z,20.72
2016-05-30T05:12:08.998Z,20.86
2016-05-30T05:13:08.923Z,20.81
2016-05-30T05:14:09.113Z,20.83
2016-05-30T05:15:09.147Z,20.83
2016-05-30T05:16:09.212Z,20.9
2016-05-30T05:17:09.215Z,20.93
2016-05-30T05:18:09.280Z,20.91
2016-05-30T05:19:09.330Z,20.95
2016-05-30T05:20:09.364Z,21.01
2016-05-30T05:21:09.414Z,21.08
2016-05-30T05:22:09.917Z,21.02
2016-05-30T05:23:09.466Z,20.96
2016-05-30T05:24:10.031Z,21.05
2016-05-30T05:25:09.408Z,21.08
2016-05-30T05:26:09.599Z,21.05
2016-05-30T05:27:09.633Z,21.08
2016-05-30T05:28:09.964Z,21.06
2016-05-30T05:29:09.779Z,21.13
2016-05-30T05:30:09.765Z,21.14
2016-05-30T05:31:09.800Z,21.08
2016-05-30T05:32:09.865Z,21.2
2016-05-30T05:33:09.899Z,21.13
2016-05-30T05:34:09.932Z,21.16
2016-05-30T05:35:09.982Z,21.23
2016-05-30T05:36:10.548Z,21.21
2016-05-30T05:37:10.409Z,21.23
2016-05-30T05:38:10.162Z,21.27
2016-05-30T05:39:09.993Z,21.23
2016-05-30T05:40:11.948Z,21.34
2016-05-30T05:41:10.265Z,21.41
2016-05-30T05:42:10.642Z,21.38
2016-05-30T05:43:10.410Z,21.45
2016-05-30T05:44:10.428Z,21.46
2016-05-30T05:45:10.900Z,21.56
2016-05-30T05:46:10.855Z,21.63
2016-05-30T05:47:10.546Z,21.56
2016-05-30T05:48:13.033Z,21.64
2016-05-30T05:49:11.817Z,21.61
2016-05-30T05:50:12.351Z,21.69
2016-05-30T05:51:13.150Z,21.64
2016-05-30T05:52:14.246Z,21.63
2016-05-30T05:53:12.421Z,21.72
2016-05-30T05:54:12.378Z,21.75
2016-05-30T05:55:12.567Z,21.74
2016-05-30T05:56:13.008Z,21.85
2016-05-30T05:57:12.682Z,21.82
2016-05-30T05:58:13.732Z,21.94
2016-05-30T05:59:13.297Z,21.94
2016-05-30T06:00:13.300Z,21.98
2016-05-30T06:01:12.958Z,21.94
2016-05-30T06:02:13.743Z,21.92
2016-05-30T06:03:12.558Z,21.97
2016-05-30T06:04:12.576Z,22.02
2016-05-30T06:05:12.485Z,21.97
2016-05-30T06:06:11.504Z,22.04
2016-05-30T06:07:11.099Z,22.04
2016-05-30T06:08:12.759Z,21.99
2016-05-30T06:09:11.480Z,22.12
2016-05-30T06:10:11.248Z,22.14
2016-05-30T06:11:13.095Z,22.16
2016-05-30T06:12:12.191Z,22.2
2016-05-30T06:13:12.678Z,22.22
2016-05-30T06:14:11.728Z,22.19
2016-05-30T06:15:12.918Z,22.25
2016-05-30T06:16:11.811Z,22.27
2016-05-30T06:17:11.673Z,22.28
2016-05-30T06:18:12.567Z,22.29
2016-05-30T06:19:11.913Z,22.35
2016-05-30T06:20:11.978Z,22.38
2016-05-30T06:21:12.090Z,22.41
2016-05-30T06:22:12.983Z,22.62
2016-05-30T06:23:14.283Z,22.56
2016-05-30T06:24:12.177Z,22.62
2016-05-30T06:25:12.116Z,22.71
2016-05-30T06:26:16.619Z,22.72
2016-05-30T06:27:12.435Z,22.77
2016-05-30T06:28:13.983Z,22.9
2016-05-30T06:29:12.361Z,23.07
2016-05-30T06:30:12.239Z,23.09
2016-05-30T06:31:12.491Z,23.22
2016-05-30T06:32:12.479Z,23.23
2016-05-30T06:33:12.607Z,23.22
2016-05-30T06:34:13.766Z,23.29
2016-05-30T06:35:14.425Z,23.34
2016-05-30T06:36:15.099Z,23.27
2016-05-30T06:37:13.790Z,23.38
2016-05-30T06:38:12.979Z,23.34
2016-05-30T06:39:12.826Z,23.26
2016-05-30T06:40:14.220Z,23.26
2016-05-30T06:41:12.909Z,23.2
2016-05-30T06:42:12.976Z,23.07
2016-05-30T06:43:12.993Z,23.09
2016-05-30T06:44:12.871Z,23.02
2016-05-30T06:45:13.561Z,23.07
2016-05-30T06:46:13.407Z,22.94
2016-05-30T06:47:13.348Z,22.96
2016-05-30T06:48:13.475Z,22.9
2016-05-30T06:49:13.120Z,22.92
2016-05-30T06:50:14.387Z,22.97
2016-05-30T06:51:13.420Z,22.96
2016-05-30T06:52:13.581Z,23.04
2016-05-30T06:53:13.536Z,23.11
2016-05-30T06:54:13.460Z,23.14
2016-05-30T06:55:16.307Z,23.2
2016-05-30T06:56:13.575Z,23.29
2016-05-30T06:57:13.875Z,23.27
2016-05-30T06:58:13.706Z,23.24
2016-05-30T06:59:13.755Z,23.4
2016-05-30T07:00:15.117Z,23.43
2016-05-30T07:01:13.807Z,23.58
2016-05-30T07:02:13.841Z,23.7
2016-05-30T07:03:13.797Z,23.64
2016-05-30T07:04:13.613Z,23.68
2016-05-30T07:05:13.975Z,23.65
2016-05-30T07:06:13.868Z,23.67
2016-05-30T07:07:14.402Z,23.64
2016-05-30T07:08:13.951Z,23.57
2016-05-30T07:09:14.563Z,23.61
2016-05-30T07:10:14.440Z,23.6
2016-05-30T07:11:14.116Z,23.61
2016-05-30T07:12:14.290Z,23.64
2016-05-30T07:13:14.261Z,23.67
2016-05-30T07:14:16.108Z,23.7
2016-05-30T07:15:14.423Z,23.67
2016-05-30T07:16:14.457Z,23.62
2016-05-30T07:17:14.929Z,23.65
2016-05-30T07:18:16.307Z,23.61
2016-05-30T07:19:14.606Z,23.61
2016-05-30T07:20:15.343Z,23.55
2016-05-30T07:21:14.783Z,23.58
2016-05-30T07:22:15.801Z,23.5
2016-05-30T07:23:14.789Z,23.5
2016-05-30T07:24:14.869Z,23.72
2016-05-30T07:25:17.497Z,23.71
2016-05-30T07:26:14.937Z,23.86
2016-05-30T07:27:15.003Z,23.86
2016-05-30T07:28:17.349Z,23.95
2016-05-30T07:29:14.914Z,23.89
2016-05-30T07:30:15.651Z,23.89
2016-05-30T07:31:15.388Z,23.94
2016-05-30T07:32:15.031Z,24.07
2016-05-30T07:33:15.080Z,24.13
2016-05-30T07:34:15.333Z,24.07
2016-05-30T07:35:15.383Z,24.19
2016-05-30T07:36:15.511Z,24.12
2016-05-30T07:37:15.607Z,24.16
2016-05-30T07:38:15.469Z,24.2
2016-05-30T07:39:15.581Z,24.17
2016-05-30T07:40:19.038Z,24.35
2016-05-30T07:41:15.602Z,24.34
2016-05-30T07:42:16.308Z,24.37
2016-05-30T07:43:15.576Z,24.52
2016-05-30T07:44:15.736Z,24.57
2016-05-30T07:45:15.848Z,24.56
2016-05-30T07:46:16.131Z,24.5
2016-05-30T07:47:16.275Z,24.53
2016-05-30T07:48:15.918Z,24.6
2016-05-30T07:49:16.327Z,24.54
2016-05-30T07:50:16.048Z,24.56
2016-05-30T07:51:16.582Z,24.57
2016-05-30T07:52:16.444Z,24.61
2016-05-30T07:53:16.212Z,24.63
2016-05-30T07:54:16.075Z,24.52
2016-05-30T07:55:16.937Z,24.53
2016-05-30T07:56:16.315Z,24.52
2016-05-30T07:57:16.427Z,24.52
2016-05-30T07:58:17.101Z,24.59
2016-05-30T07:59:16.432Z,24.69
2016-05-30T08:00:16.481Z,24.69
2016-05-30T08:01:16.531Z,24.67
2016-05-30T08:02:16.566Z,24.67
2016-05-30T08:03:16.536Z,24.64
2016-05-30T08:04:16.664Z,24.71
2016-05-30T08:05:16.714Z,24.73
2016-05-30T08:06:16.607Z,24.82
2016-05-30T08:07:17.500Z,24.85
2016-05-30T08:08:16.847Z,24.87
2016-05-30T08:09:16.897Z,24.94
2016-05-30T08:10:16.962Z,24.87
2016-05-30T08:11:17.011Z,24.87
2016-05-30T08:12:17.060Z,24.87
2016-05-30T08:13:17.110Z,24.8
2016-05-30T08:14:17.129Z,24.83
2016-05-30T08:15:17.038Z,24.71
2016-05-30T08:16:17.307Z,24.6
2016-05-30T08:17:17.699Z,24.5
2016-05-30T08:18:17.218Z,24.52
2016-05-30T08:19:17.376Z,24.44
2016-05-30T08:20:17.489Z,24.52
2016-05-30T08:21:17.757Z,24.47
2016-05-30T08:22:17.541Z,24.47
2016-05-30T08:23:17.638Z,24.53
2016-05-30T08:24:18.420Z,24.35
2016-05-30T08:25:17.611Z,24.38
2016-05-30T08:26:18.317Z,24.34
2016-05-30T08:27:17.898Z,24.22
2016-05-30T08:28:17.807Z,24.35
2016-05-30T08:29:24.403Z,24.1
2016-05-30T08:30:18.312Z,24.23
2016-05-30T08:31:18.189Z,24.2
2016-05-30T08:32:19.005Z,24.02
2016-05-30T08:33:19.758Z,24.07
2016-05-30T08:34:18.058Z,24.01
2016-05-30T08:35:17.950Z,24.07
2016-05-30T08:36:18.157Z,24.01
2016-05-30T08:37:20.081Z,23.98
2016-05-30T08:38:18.255Z,23.98
2016-05-30T08:39:18.430Z,23.89
2016-05-30T08:40:18.433Z,23.87
2016-05-30T08:41:18.374Z,23.82
2016-05-30T08:42:18.424Z,23.85
2016-05-30T08:43:18.471Z,23.71
2016-05-30T08:44:18.554Z,23.77
2016-05-30T08:45:18.665Z,23.75
2016-05-30T08:46:18.605Z,23.68
2016-05-30T08:47:18.670Z,23.61
2016-05-30T08:48:18.689Z,23.53
2016-05-30T08:49:18.723Z,23.49
2016-05-30T08:50:18.788Z,23.47
2016-05-30T08:51:19.041Z,23.45
2016-05-30T08:52:18.871Z,23.45
2016-05-30T08:53:19.155Z,23.39
2016-05-30T08:54:18.986Z,23.38
2016-05-30T08:55:20.083Z,23.24
2016-05-30T08:56:19.054Z,23.17
2016-05-30T08:57:19.120Z,23.17
2016-05-30T08:58:19.498Z,23.22
2016-05-30T08:59:19.172Z,23.17
2016-05-30T09:00:19.158Z,23.11
2016-05-30T09:01:19.458Z,23.11
2016-05-30T09:02:19.695Z,23.14
2016-05-30T09:03:20.480Z,23.07
2016-05-30T09:04:21.686Z,23.09
2016-05-30T09:05:22.188Z,23.11
2016-05-30T09:06:19.691Z,22.92
2016-05-30T09:07:20.224Z,22.92
2016-05-30T09:08:22.009Z,22.93
2016-05-30T09:09:20.121Z,22.94
2016-05-30T09:10:19.732Z,22.89
2016-05-30T09:11:19.688Z,22.77
2016-05-30T09:12:20.160Z,22.78
2016-05-30T09:13:19.866Z,22.8
2016-05-30T09:14:19.884Z,22.77
2016-05-30T09:15:19.918Z,22.74
2016-05-30T09:16:21.529Z,22.8
2016-05-30T09:17:20.595Z,22.83
2016-05-30T09:18:21.113Z,22.84
2016-05-30T09:19:20.601Z,22.83
2016-05-30T09:20:20.557Z,22.86
2016-05-30T09:21:20.871Z,22.92
2016-05-30T09:22:20.859Z,22.94
2016-05-30T09:23:23.345Z,22.92
2016-05-30T09:24:21.082Z,22.83
2016-05-30T09:25:20.929Z,22.83
2016-05-30T09:26:21.010Z,22.84
2016-05-30T09:27:21.700Z,22.77
2016-05-30T09:28:20.733Z,22.78
2016-05-30T09:29:20.503Z,22.82
2016-05-30T09:30:22.927Z,22.8
2016-05-30T09:31:20.726Z,22.84
2016-05-30T09:32:20.917Z,22.8
2016-05-30T09:33:20.701Z,22.78
2016-05-30T09:34:20.766Z,22.77
2016-05-30T09:35:20.722Z,22.8
2016-05-30T09:36:21.568Z,22.8
2016-05-30T09:37:22.197Z,22.9
2016-05-30T09:38:21.199Z,22.93
2016-05-30T09:39:21.044Z,23.05
2016-05-30T09:40:21.016Z,23.09
2016-05-30T09:41:21.082Z,23.12
2016-05-30T09:42:21.240Z,23.07
2016-05-30T09:43:21.150Z,23.04
2016-05-30T09:44:21.308Z,23.24
2016-05-30T09:45:21.248Z,23.2
2016-05-30T09:46:21.424Z,23.19
2016-05-30T09:47:21.535Z,23.14
2016-05-30T09:48:21.256Z,23.19
2016-05-30T09:49:21.494Z,23.24
2016-05-30T09:50:21.856Z,23.39
2016-05-30T09:51:21.499Z,23.31
2016-05-30T09:52:22.282Z,23.4
2016-05-30T09:53:21.598Z,23.42
2016-05-30T09:54:21.662Z,23.5
2016-05-30T09:55:21.806Z,23.47
2016-05-30T09:56:21.747Z,23.47
2016-05-30T09:57:21.781Z,23.47
2016-05-30T09:58:21.939Z,23.49
2016-05-30T09:59:21.926Z,23.6
2016-05-30T10:00:21.929Z,23.62
2016-05-30T10:01:22.151Z,23.57
2016-05-30T10:02:22.059Z,23.7
2016-05-30T10:03:22.062Z,23.86
2016-05-30T10:04:22.237Z,23.94
2016-05-30T10:05:22.147Z,24.07
2016-05-30T10:06:22.289Z,24.12
2016-05-30T10:07:22.245Z,24.17
2016-05-30T10:08:22.420Z,24.23
2016-05-30T10:09:22.189Z,24.22
2016-05-30T10:10:24.425Z,24.35
2016-05-30T10:11:22.428Z,24.6
2016-05-30T10:12:22.353Z,24.67
2016-05-30T10:13:22.527Z,24.98
2016-05-30T10:14:22.624Z,25.16
2016-05-30T10:15:22.611Z,25.27
2016-05-30T10:16:22.754Z,25.37
2016-05-30T10:17:22.710Z,25.46
2016-05-30T10:18:22.759Z,25.64
2016-05-30T10:19:22.793Z,25.83
2016-05-30T10:20:22.843Z,25.65
2016-05-30T10:21:23.298Z,25.84
2016-05-30T10:22:22.832Z,25.79
2016-05-30T10:23:23.210Z,25.75
2016-05-30T10:24:23.198Z,25.67
2016-05-30T10:25:22.981Z,25.54
2016-05-30T10:26:23.171Z,25.57
2016-05-30T10:27:23.190Z,25.46
2016-05-30T10:28:23.067Z,25.44
2016-05-30T10:29:23.273Z,25.54
2016-05-30T10:30:23.323Z,25.52
2016-05-30T10:31:23.372Z,25.53
2016-05-30T10:32:23.422Z,25.54
2016-05-30T10:33:23.503Z,25.62
2016-05-30T10:34:24.489Z,25.71
2016-05-30T10:35:24.383Z,25.79
2016-05-30T10:36:26.401Z,25.82
2016-05-30T10:37:27.670Z,26.01
2016-05-30T10:38:25.906Z,25.94
2016-05-30T10:39:26.144Z,26.21
2016-05-30T10:40:24.771Z,26.2
2016-05-30T10:41:26.072Z,26.24
2016-05-30T10:42:26.683Z,26.31
2016-05-30T10:43:24.108Z,26.64
2016-05-30T10:44:25.423Z,26.76
2016-05-30T10:45:27.316Z,26.86
2016-05-30T10:46:26.740Z,27.01
2016-05-30T10:47:25.650Z,27.14
2016-05-30T10:48:26.590Z,27.32
2016-05-30T10:49:26.842Z,27.48
2016-05-30T10:50:27.017Z,27.61
2016-05-30T10:51:27.083Z,27.74
2016-05-30T10:52:25.679Z,27.82
2016-05-30T10:53:25.869Z,27.84
2016-05-30T10:54:26.966Z,27.94
2016-05-30T10:55:27.734Z,28.32
2016-05-30T10:56:26.612Z,28.69
2016-05-30T10:57:27.677Z,29.08
2016-05-30T10:58:25.992Z,29.84
2016-05-30T10:59:26.432Z,30.57
2016-05-30T11:00:27.309Z,31.36
2016-05-30T11:01:26.875Z,32.18
2016-05-30T11:02:27.284Z,33.1
2016-05-30T11:03:26.583Z,33.94
2016-05-30T11:04:25.883Z,34.46
2016-05-30T11:05:26.370Z,35.17
2016-05-30T11:06:27.778Z,35.6
2016-05-30T11:07:27.625Z,36
2016-05-30T11:08:30.112Z,36.23
2016-05-30T11:09:26.818Z,35.58
2016-05-30T11:10:27.242Z,34.83
2016-05-30T11:11:27.730Z,34.34
2016-05-30T11:12:26.608Z,34.61
2016-05-30T11:13:25.891Z,34.81
2016-05-30T11:14:25.878Z,35.06
2016-05-30T11:15:26.835Z,35.15
2016-05-30T11:16:27.087Z,35.58
2016-05-30T11:17:27.465Z,36.21
2016-05-30T11:18:27.046Z,36.54
2016-05-30T11:19:28.267Z,36.45
2016-05-30T11:20:26.035Z,36.24
2016-05-30T11:21:26.366Z,35.63
2016-05-30T11:22:26.369Z,35.08
2016-05-30T11:23:26.263Z,34.5
2016-05-30T11:24:27.718Z,33.92
2016-05-30T11:25:29.221Z,33.45
2016-05-30T11:26:27.473Z,33.78
2016-05-30T11:27:26.992Z,34.61
2016-05-30T11:28:27.056Z,35.45
2016-05-30T11:29:27.466Z,36.15
2016-05-30T11:30:59.609Z,36.76
2016-05-30T11:31:27.174Z,36.99
2016-05-30T11:32:28.661Z,37.39
2016-05-30T11:33:27.508Z,37.86
2016-05-30T11:34:28.417Z,38.41
2016-05-30T11:35:27.810Z,38.75
2016-05-30T11:36:27.375Z,39.25
2016-05-30T11:37:28.269Z,39.65
2016-05-30T11:38:29.458Z,40.11
2016-05-30T11:39:27.243Z,40.27
2016-05-30T11:40:28.042Z,40.52
2016-05-30T11:41:27.997Z,40.83
2016-05-30T11:42:27.407Z,41
2016-05-30T11:43:27.394Z,41.39
2016-05-30T11:44:27.569Z,41.98
2016-05-30T11:45:27.336Z,42.29
2016-05-30T11:46:28.219Z,42.62
2016-05-30T11:47:28.617Z,42.95
2016-05-30T11:48:29.937Z,42.76
2016-05-30T11:49:27.912Z,42.72
2016-05-30T11:50:28.004Z,42.79
2016-05-30T11:51:27.967Z,42.83
2016-05-30T11:52:27.852Z,42.7
2016-05-30T11:53:28.128Z,42.39
2016-05-30T11:54:28.154Z,42.04
2016-05-30T11:55:28.222Z,41.59
2016-05-30T11:56:28.290Z,41.15
2016-05-30T11:57:28.421Z,40.86
2016-05-30T11:58:30.082Z,40.66
2016-05-30T11:59:28.479Z,40.71
2016-05-30T12:00:28.561Z,40.68
2016-05-30T12:01:28.627Z,40.56
2016-05-30T12:02:28.741Z,40.56
2016-05-30T12:03:28.823Z,40.59
2016-05-30T12:04:28.794Z,40.68
2016-05-30T12:05:28.877Z,40.91
2016-05-30T12:06:29.036Z,41.22
2016-05-30T12:07:30.101Z,41.43
2016-05-30T12:08:30.870Z,41.44
2016-05-30T12:09:29.123Z,41.55
2016-05-30T12:10:29.220Z,41.61
2016-05-30T12:11:29.238Z,41.68
2016-05-30T12:12:30.506Z,41.85
2016-05-30T12:13:29.368Z,41.91
2016-05-30T12:14:31.198Z,42.16
2016-05-30T12:15:31.764Z,42.49
2016-05-30T12:16:29.611Z,42.62
2016-05-30T12:17:31.614Z,42.75
2016-05-30T12:18:29.757Z,42.66
2016-05-30T12:19:30.275Z,42.16
2016-05-30T12:20:31.294Z,41.49
2016-05-30T12:21:31.547Z,41.05
2016-05-30T12:22:29.767Z,40.15
2016-05-30T12:23:30.083Z,39.62
2016-05-30T12:24:31.570Z,39.44
2016-05-30T12:25:32.885Z,39.44
2016-05-30T12:26:32.513Z,39.64
2016-05-30T12:27:31.984Z,39.54
2016-05-30T12:28:32.971Z,39.27
2016-05-30T12:29:32.411Z,39.18
2016-05-30T12:30:32.039Z,38.64
2016-05-30T12:31:32.355Z,38.6
2016-05-30T12:32:34.232Z,38.24
2016-05-30T12:33:35.782Z,38.1
2016-05-30T12:34:32.581Z,37.88
2016-05-30T12:35:32.849Z,37.85
2016-05-30T12:36:33.665Z,37.83
2016-05-30T12:37:32.355Z,37.71
2016-05-30T12:38:32.263Z,37.68
2016-05-30T12:39:32.985Z,37.92
2016-05-30T12:40:32.535Z,38.33
2016-05-30T12:41:32.709Z,38.44
2016-05-30T12:42:33.556Z,38.63
2016-05-30T12:43:43.059Z,38.6
2016-05-30T12:44:32.640Z,38.68
2016-05-30T12:45:31.392Z,38.61
2016-05-30T12:46:31.426Z,38.61
2016-05-30T12:47:32.272Z,38.55
2016-05-30T12:48:32.620Z,38.61
2016-05-30T12:49:34.215Z,38.57
2016-05-30T12:50:33.031Z,38.57
2016-05-30T12:51:33.658Z,38.63
2016-05-30T12:52:32.239Z,38.71
2016-05-30T12:53:33.758Z,38.96
2016-05-30T12:54:32.181Z,39.37
2016-05-30T12:55:34.544Z,39.86
2016-05-30T12:56:33.766Z,40.33